WetterOnline ( http://www.wetteronline.de )

Wetter aktuell Geesthacht

Aktuelles Wetter: Boizenburg (46m)

6-stündlich | Neueste Meldungen
Ortszeit Temperatur Wetter
Mo, 18.03. 19:00 3.1° C leicht bewölkt
Mo, 18.03. 13:00 7.4° C Sprühregen
Mo, 18.03. 7:00 4.1° C bewölkt
Mo, 18.03. 1:00 4.7° C wolkig
So, 17.03. 19:00 5.9° C leicht bewölkt
So, 17.03. 13:00 7.1° C leichter Regen
So, 17.03. 7:00 9.8° C bedeckt
So, 17.03. 1:00 9.6° C bedeckt
Ortszeit Temperatur Wetter
Mo, 18.03. 22:00 3.5° C fast wolkenlos
Mo, 18.03. 21:50 3.5° C fast wolkenlos
Mo, 18.03. 21:40 3.6° C wolkenlos
Mo, 18.03. 21:30 3.7° C leicht bewölkt
Mo, 18.03. 21:20 3.7° C leicht bewölkt
Mo, 18.03. 21:10 3.9° C wolkig
Mo, 18.03. 21:00 3.8° C leicht bewölkt
Mo, 18.03. 20:30 3.4° C wolkig
Mo, 18.03. 20:00 4.1° C leichter Regen
Mo, 18.03. 19:30 3.9° C leicht bewölkt
Mo, 18.03. 19:00 3.1° C leicht bewölkt
Ortszeit Relative Feuchte Sichtweite
Mo, 18.03. 19:00 92% 27 km
Mo, 18.03. 13:00 70% 21 km
Mo, 18.03. 7:00 86% 35 km
Mo, 18.03. 1:00 73% 50 km
So, 17.03. 19:00 79% 60 km
So, 17.03. 13:00 76% 40 km
So, 17.03. 7:00 74% 50 km
So, 17.03. 1:00 76% 45 km
Ortszeit Relative Feuchte Sichtweite
Mo, 18.03. 22:00 87% 24 km
Mo, 18.03. 21:50 87% -
Mo, 18.03. 21:40 87% -
Mo, 18.03. 21:30 86% 30 km
Mo, 18.03. 21:20 86% -
Mo, 18.03. 21:10 85% -
Mo, 18.03. 21:00 87% 27 km
Mo, 18.03. 20:30 89% 30 km
Mo, 18.03. 20:00 81% 10 km
Mo, 18.03. 19:30 84% 26 km
Mo, 18.03. 19:00 92% 27 km
Ortszeit Niederschlagsmenge Niederschlagsart
Mo, 18.03. 19:00 2 l/m2 in 12 Std. Regen
Mo, 18.03. 13:00 0.3 l/m2 in 6 Std. Regen
Mo, 18.03. 7:00 0.2 l/m2 in 12 Std. Regen
Mo, 18.03. 1:00 0.1 l/m2 in 6 Std. Regen
So, 17.03. 19:00 2 l/m2 in 12 Std. Schneeregen
So, 17.03. 13:00 2 l/m2 in 6 Std. Regen
So, 17.03. 7:00 0.2 l/m2 in 12 Std. -
So, 17.03. 1:00 0.2 l/m2 in 6 Std. Regen
Ortszeit Niederschlagsmenge Niederschlagsart
Mo, 18.03. 22:00 0.0 l/m2 in 1 Std. Regen
Mo, 18.03. 21:50 keine Meldung -
Mo, 18.03. 21:40 keine Meldung -
Mo, 18.03. 21:30 0.0 l/m2 in 1 Std. -
Mo, 18.03. 21:20 keine Meldung -
Mo, 18.03. 21:10 keine Meldung -
Mo, 18.03. 21:00 0.1 l/m2 in 1 Std. Regen
Mo, 18.03. 20:30 0.1 l/m2 in 1 Std. Schneeregen
Mo, 18.03. 20:00 0.1 l/m2 in 1 Std. Regen
Mo, 18.03. 19:30 0.0 l/m2 in 1 Std. -
Mo, 18.03. 19:00 0.1 l/m2 in 1 Std. Regen
Ortszeit Stärke Spitze Richtung
km/h Bft. km/h Grad Sektor
Mo, 18.03. 19:00 9 2 69 300° NW
Mo, 18.03. 13:00 37 5 70 270° W
Mo, 18.03. 7:00 28 4 54 240° SW
Mo, 18.03. 1:00 26 4 46 230° SW
So, 17.03. 19:00 17 3 59 220° SW
So, 17.03. 13:00 22 4 50 250° W
So, 17.03. 7:00 25 4 47 200° S
So, 17.03. 1:00 18 3 40 200° S
Ortszeit Stärke Spitze Richtung
km/h Bft. km/h Grad Sektor
Mo, 18.03. 22:00 17 3 33 250° W
Mo, 18.03. 21:50 17 3 - 250° W
Mo, 18.03. 21:40 17 3 - 260° W
Mo, 18.03. 21:30 17 3 33 260° W
Mo, 18.03. 21:20 17 3 - 260° W
Mo, 18.03. 21:10 18 3 - 260° W
Mo, 18.03. 21:00 18 3 58 260° W
Mo, 18.03. 20:30 18 3 58 260° W
Mo, 18.03. 20:00 20 4 56 250° W
Mo, 18.03. 19:30 11 2 25 260° W
Mo, 18.03. 19:00 9 2 33 300° NW
Ortszeit Untergrenze Bedeckung Gattung
total tief tief mittel hoch
Mo, 18.03. 19:00 930 m 2/8 4/8 - - -
Mo, 18.03. 13:00 720 m 6/8 6/8 - - -
Mo, 18.03. 7:00 480 m 7/8 7/8 - - -
Mo, 18.03. 1:00 1380 m 8/8 3/8 - - -
So, 17.03. 19:00 1110 m 4/8 3/8 - - -
So, 17.03. 13:00 660 m 8/8 8/8 - - -
So, 17.03. 7:00 870 m 8/8 8/8 - - -
So, 17.03. 1:00 1080 m 8/8 8/8 - - -
Ortszeit Bedeckungsgrad in Achtel und Wolkenuntergrenze
Mo, 18.03. 22:00 1(960m)
Mo, 18.03. 21:50 1(960m)
Mo, 18.03. 21:40 keine Wolken
Mo, 18.03. 21:30 3(630m) 4(1080m)
Mo, 18.03. 21:20 3(630m) 4(1080m)
Mo, 18.03. 21:10 4(630m) 6(1110m)
Mo, 18.03. 21:00 2(1110m) 5(1110m)
Mo, 18.03. 20:30 1(840m) 4(1500m) 5(1500m)
Mo, 18.03. 20:00 3(780m) 6(990m) 7(1500m)
Mo, 18.03. 19:30 3(900m) 4(1050m)
Mo, 18.03. 19:00 1(930m) 4(990m)
Ortszeit Luftdruck NN (hPa) Tendenz (hPa in 3 Std.)
Mo, 18.03. 19:00 1015 + 3,6
Mo, 18.03. 13:00 1009 + 2,3
Mo, 18.03. 7:00 1005 + 1,6
Mo, 18.03. 1:00 1003 + 0,8
So, 17.03. 19:00 1001 + 2,3
So, 17.03. 13:00 998 + 2,0
So, 17.03. 7:00 993 - 1,3
So, 17.03. 1:00 997 - 1,8
Ortszeit Luftdruck NN (hPa) Tendenz (hPa in 3 Std.)
Mo, 18.03. 22:00 1017 + 2,4
Mo, 18.03. 21:50 1017 keine Meldung
Mo, 18.03. 21:40 1017 keine Meldung
Mo, 18.03. 21:30 1017 + 2,6
Mo, 18.03. 21:20 1017 keine Meldung
Mo, 18.03. 21:10 1017 keine Meldung
Mo, 18.03. 21:00 1017 + 2,7
Mo, 18.03. 20:30 1016 + 2,9
Mo, 18.03. 20:00 1016 + 3,0
Mo, 18.03. 19:30 1016 + 3,3
Mo, 18.03. 19:00 1015 + 3,6
Ortszeit Schneehöhe (cm)
Mo, 18.03. 19:00 0
Mo, 18.03. 13:00 0
Mo, 18.03. 7:00 0
Mo, 18.03. 1:00 0
So, 17.03. 19:00 0
So, 17.03. 13:00 0
So, 17.03. 7:00 0
So, 17.03. 1:00 0
Ortszeit Schneehöhe (cm)
Mo, 18.03. 22:00 0
Mo, 18.03. 21:50 0
Mo, 18.03. 21:40 0
Mo, 18.03. 21:30 0
Mo, 18.03. 21:20 0
Mo, 18.03. 21:10 0
Mo, 18.03. 21:00 0
Mo, 18.03. 20:30 0
Mo, 18.03. 20:00 0
Mo, 18.03. 19:30 0
Mo, 18.03. 19:00 0
Link zu dieser Seite / Seite empfehlen

Das Wetter in ...